Latest Weather Observations for Sheffield

IDT60801

Issued at 10:31 am EST Monday 31 August 2015 (issued every 30 minutes, with the page automatically refreshed every 10 minutes)

About weather observations | Map of weather stations | Latest weather observations for TAS | Other Formats
Station Details ID: 091291 Name: SHEFFIELD SCHOOL FARM Lat: -41.39 Lon: 146.32 Height: 294.2 m
Data from the previous 72 hours. | See also: Recent months at Sheffield
Date/Time
EST
Temp
°C
App
Temp
°C
Dew
Point
Rel
Hum
%
Delta-T
°C
Wind Press
QNH
hPa
Press
MSL
hPa
Rain
since 9 am
mm
Dir
 
Spd
km/h
Gust
km/h
Spd
kts
Gust
kts
31/10:30am 8.3 4.8 -1.5 50 3.8 ESE 7 13 4 7 1019.9 1020.4 0.0
31/10:00am 8.3 5.9 -0.2 55 3.4 ESE 2 6 1 3 1020.3 1020.8 0.0
31/09:30am 6.0 3.4 0.8 69 2.1 W 4 6 2 3 1020.5 1021.0 0.0
31/09:00am 4.7 1.7 1.0 77 1.5 WSW 6 9 3 5 1020.5 1021.0 0.0
31/08:30am 2.5 -0.4 -0.9 78 1.3 WSW 4 6 2 3 1020.6 1021.2 0.0
31/08:00am 1.3 -1.3 -1.8 80 1.1 NW 2 4 1 2 1020.6 1021.2 0.0
31/07:30am 0.2 -3.5 -2.5 82 0.9 SW 7 9 4 5 1020.4 1020.9 0.0
31/07:00am 0.3 -3.1 -1.9 85 0.8 SSW 6 11 3 6 1020.2 1020.7 0.0
31/06:30am 0.1 -3.3 -2.4 83 0.9 SSW 6 7 3 4 1019.9 1020.4 0.0
31/06:00am 0.4 -3.5 -1.5 87 0.7 SW 9 9 5 5 1020.2 1020.7 0.0
31/05:30am 0.8 -2.5 -1.1 87 0.7 SSW 6 7 3 4 1020.0 1020.5 0.0
31/05:00am 0.1 -2.5 -1.5 89 0.6 SSE 2 4 1 2 1020.1 1020.6 0.0
31/04:30am -0.1 -3.0 -1.2 92 0.4 SW 4 6 2 3 1020.1 1020.6 0.0
31/04:00am -0.3 -3.7 -1.7 90 0.5 SSE 6 7 3 4 1020.1 1020.6 0.0
31/03:30am 0.9 -2.5 -0.4 91 0.5 SW 7 9 4 5 1020.4 1020.9 0.0
31/03:00am 0.8 -1.2 -0.2 93 0.4 CALM 0 0 0 0 1020.7 1021.3 0.0
31/02:30am 0.6 -2.6 -0.4 93 0.4 W 6 9 3 5 1021.1 1021.7 0.0
31/02:00am 1.2 -1.5 0.0 92 0.4 NE 4 4 2 2 1021.3 1021.9 0.0
31/01:30am 2.2 -0.5 0.6 89 0.6 SSW 4 6 2 3 1021.6 1022.2 0.0
31/01:00am 2.4 0.1 0.6 88 0.7 SW 2 4 1 2 1021.7 1022.3 0.0
31/12:30am 2.2 -0.8 0.6 89 0.6 SSW 6 6 3 3 1021.9 1022.5 0.0
31/12:00am 2.5 -0.5 0.7 88 0.7 S 6 6 3 3 1021.9 1022.5 0.0
 
Date/Time
EST
Temp
°C
App
Temp
°C
Dew
Point
Rel
Hum
%
Delta-T
°C
Wind Press
QNH
hPa
Press
MSL
hPa
Rain
since 9 am
mm
Dir
 
Spd
km/h
Gust
km/h
Spd
kts
Gust
kts
30/11:30pm 2.8 -0.2 0.7 86 0.8 SE 6 11 3 6 1022.3 1022.9 0.0
30/11:00pm 2.4 -0.3 0.1 85 0.9 S 4 7 2 4 1022.5 1023.1 0.0
30/10:30pm 3.0 -1.4 0.6 84 0.9 SE 13 17 7 9 1022.8 1023.3 0.0
30/10:00pm 3.8 0.6 1.0 82 1.1 ESE 7 9 4 5 1022.9 1023.4 0.0
30/09:30pm 4.1 -0.2 1.0 80 1.2 SE 13 15 7 8 1022.9 1023.4 0.0
30/09:00pm 4.2 -0.1 0.9 79 1.3 SE 13 17 7 9 1022.5 1023.1 0.0
30/08:30pm 4.4 0.4 0.7 77 1.5 SE 11 13 6 7 1022.5 1023.1 0.0
30/08:00pm 5.1 0.9 1.4 77 1.5 SE 13 19 7 10 1022.2 1022.8 0.0
30/07:30pm 5.6 2.7 1.3 74 1.7 ESE 6 7 3 4 1022.1 1022.7 0.0
30/07:00pm 5.8 2.9 1.7 75 1.7 SE 6 7 3 4 1022.0 1022.6 0.0
30/06:30pm 6.8 3.1 2.1 72 2.0 ESE 11 15 6 8 1021.8 1022.4 0.0
30/06:00pm 7.5 3.8 2.4 70 2.1 ESE 11 15 6 8 1021.5 1022.1 0.0
30/05:30pm 8.7 5.4 2.5 65 2.7 E 9 13 5 7 1021.3 1021.9 0.0
30/05:00pm 9.9 5.5 2.5 60 3.2 E 15 19 8 10 1021.0 1021.6 0.0
30/04:30pm 10.9 7.2 2.5 56 3.7 E 11 15 6 8 1020.9 1021.5 0.0
30/04:00pm 11.3 7.2 2.1 53 4.0 E 13 19 7 10 1021.0 1021.6 0.0
30/03:30pm 11.9 9.0 2.4 52 4.2 ENE 7 15 4 8 1020.9 1021.5 0.0
30/03:00pm 11.7 8.8 1.6 50 4.3 NE 6 13 3 7 1021.0 1021.6 0.0
30/02:30pm 11.9 9.1 2.9 54 4.0 ENE 7 11 4 6 1021.2 1021.8 0.0
30/02:00pm 11.6 7.8 1.8 51 4.2 E 11 15 6 8 1021.1 1021.7 0.0
30/01:30pm 11.2 8.1 0.3 47 4.5 NE 6 15 3 8 1021.3 1021.9 0.0
30/01:00pm 11.3 8.8 1.3 50 4.3 E 4 9 2 5 1021.5 1022.1 0.0
30/12:30pm 11.0 7.3 -0.2 46 4.6 ENE 9 15 5 8 1021.8 1022.4 0.0
30/12:00pm 10.6 8.3 0.3 49 4.2 NW 2 7 1 4 1022.3 1022.9 0.0
30/11:30am - - - - - SE 4 6 2 3 1022.9 1023.4 0.0
30/11:00am 9.4 6.4 -1.9 45 4.4 ESE 4 6 2 3 1023.2 1023.7 0.0
30/10:30am 9.4 6.4 -1.6 46 4.3 NNE 4 6 2 3 1023.4 1023.9 0.0
30/10:00am 8.3 5.8 -1.2 51 3.7 NNW 2 2 1 1 1023.5 1024.1 0.0
30/09:30am 6.3 3.4 -0.9 60 2.8 NW 4 6 2 3 1023.5 1024.1 0.0
30/09:00am 4.4 1.9 -1.2 67 2.1 WNW 2 4 1 2 1023.4 1023.9 0.0
30/08:30am 2.7 0.0 -2.8 67 1.9 WNW 2 6 1 3 1023.4 1023.9 0.0
30/08:00am 2.5 -0.1 -1.8 73 1.5 N 2 4 1 2 1023.5 1024.1 0.0
30/07:30am 1.3 -1.8 -3.0 73 1.6 N 4 6 2 3 1023.3 1023.8 0.0
30/07:00am 0.5 -1.9 -3.1 77 1.3 CALM 0 0 0 0 1023.1 1023.6 0.0
30/06:30am 0.5 -2.7 -3.6 74 1.4 W 4 6 2 3 1022.7 1023.2 0.0
30/06:00am 1.3 -1.5 -3.6 70 1.7 WSW 2 4 1 2 1022.3 1022.9 0.0
30/05:30am 0.8 -2.0 -2.9 76 1.3 NW 2 4 1 2 1022.2 1022.8 0.0
30/05:00am 1.8 -0.5 -2.5 73 1.5 CALM 0 2 0 1 1022.0 1022.6 0.0
30/04:30am 1.6 -1.5 -2.3 75 1.4 ENE 4 6 2 3 1021.9 1022.5 0.0
30/04:00am 2.6 -0.1 -2.3 70 1.7 NNE 2 4 1 2 1021.8 1022.4 0.0
30/03:30am 2.0 -0.7 -2.1 74 1.5 SE 2 4 1 2 1021.8 1022.4 0.0
30/03:00am 2.3 -0.7 -2.2 72 1.6 SE 4 7 2 4 1022.0 1022.6 0.0
30/02:30am 2.6 -1.0 -2.3 70 1.7 SSW 7 13 4 7 1022.2 1022.8 0.0
30/02:00am 3.4 -0.5 -1.7 69 1.8 SW 9 11 5 6 1022.8 1023.3 0.0
30/01:30am 2.6 -0.9 -1.7 73 1.6 WNW 7 11 4 6 1023.1 1023.6 0.0
30/01:00am 3.6 0.3 -1.3 70 1.8 WSW 6 7 3 4 1023.2 1023.7 0.0
30/12:30am 3.5 1.0 -0.9 73 1.6 NW 2 7 1 4 1023.4 1023.9 0.0
30/12:00am 4.0 1.4 -1.4 68 2.0 NW 2 6 1 3 1023.3 1023.8 0.0
 
Date/Time
EST
Temp
°C
App
Temp
°C
Dew
Point
Rel
Hum
%
Delta-T
°C
Wind Press
QNH
hPa
Press
MSL
hPa
Rain
since 9 am
mm
Dir
 
Spd
km/h
Gust
km/h
Spd
kts
Gust
kts
29/11:30pm 5.0 2.5 -1.2 64 2.3 WSW 2 6 1 3 1023.3 1023.8 0.0
29/11:00pm 4.6 1.7 -0.8 68 2.0 WNW 4 6 2 3 1023.5 1024.1 0.0
29/10:30pm 4.4 0.6 -0.8 69 2.0 W 9 13 5 7 1023.6 1024.2 0.0
29/10:00pm 6.0 2.8 -0.3 64 2.4 WNW 6 6 3 3 1023.4 1023.9 0.0
29/09:30pm 6.0 3.6 -0.5 63 2.5 ENE 2 6 1 3 1023.3 1023.8 0.0
29/09:00pm 5.5 2.7 -0.5 65 2.3 N 4 6 2 3 1023.1 1023.6 0.0
29/08:30pm 6.5 4.1 -0.2 62 2.6 NNW 2 4 1 2 1022.7 1023.2 0.0
29/08:00pm 7.0 2.5 -0.2 60 2.8 SSE 13 19 7 10 1022.2 1022.8 0.0
29/07:30pm 8.2 4.8 -0.3 55 3.4 ESE 7 17 4 9 1022.0 1022.6 0.0
29/07:00pm 8.3 5.1 -0.4 54 3.4 SSW 6 9 3 5 1021.6 1022.2 0.0
29/06:30pm 8.4 5.6 -0.4 54 3.5 S 4 7 2 4 1021.3 1021.9 0.0
29/06:00pm 8.4 4.4 0.4 57 3.2 SE 11 17 6 9 1020.9 1021.5 0.0
29/05:30pm 9.3 5.3 0.2 53 3.7 SE 11 17 6 9 1020.6 1021.2 0.0
29/05:00pm 10.1 4.9 0.4 51 4.0 ESE 17 24 9 13 1020.2 1020.7 0.0
29/04:30pm 10.1 5.8 1.2 54 3.7 SSE 13 20 7 11 1020.1 1020.6 0.0
29/04:00pm 10.6 5.8 0.3 49 4.3 SSE 15 24 8 13 1020.0 1020.5 0.0
29/03:30pm 10.8 5.7 0.8 50 4.2 SSE 17 28 9 15 1019.8 1020.3 0.0
29/03:00pm 11.1 6.9 1.4 51 4.1 S 13 24 7 13 1019.8 1020.3 0.0
29/02:30pm 11.2 5.8 1.5 51 4.2 S 19 30 10 16 1019.7 1020.2 0.0
29/02:00pm 11.9 6.4 1.8 50 4.4 S 20 33 11 18 1019.7 1020.2 0.0
29/01:30pm 12.0 6.6 2.5 52 4.2 S 20 30 11 16 1019.5 1020.0 0.0
29/01:00pm 11.4 6.4 1.1 49 4.4 S 17 24 9 13 1019.7 1020.2 0.0
29/12:30pm 11.4 7.0 2.7 55 3.8 S 15 24 8 13 1019.8 1020.3 0.0
29/12:00pm 10.9 5.4 1.7 53 3.9 SSW 20 32 11 17 1019.9 1020.4 0.0
29/11:30am 11.2 5.1 2.5 55 3.8 S 24 35 13 19 1020.1 1020.6 0.0
29/11:00am 11.6 3.8 2.6 54 4.0 S 33 56 18 30 1019.9 1020.4 0.0
29/10:53am 11.4 3.8 2.7 55 3.8 S 32 56 17 30 1019.5 1020.0 0.0
29/10:30am 11.6 5.3 3.6 58 3.6 SSE 26 39 14 21 1019.9 1020.4 0.0
29/10:00am 9.8 3.9 1.9 58 3.4 S 22 33 12 18 1020.0 1020.5 0.0
29/09:30am 9.8 3.5 1.7 57 3.4 SSW 24 37 13 20 1019.7 1020.2 0.0
29/09:00am 9.3 5.1 1.9 60 3.1 S 13 24 7 13 1019.2 1019.7 0.0
29/08:30am 8.9 5.5 1.6 60 3.1 S 9 17 5 9 1019.0 1019.6 0.0
29/08:00am 8.2 3.6 1.4 62 2.8 S 15 24 8 13 1018.9 1019.5 0.0
29/07:30am 7.8 3.1 1.2 63 2.7 S 15 22 8 12 1018.7 1019.3 0.0
29/07:00am 7.3 3.8 1.2 65 2.5 SE 9 15 5 8 1018.6 1019.2 0.0
29/06:30am 7.4 3.4 0.8 63 2.7 SSE 11 22 6 12 1018.3 1018.9 0.0
29/06:00am 7.7 2.0 0.7 61 2.8 S 20 43 11 23 1017.8 1018.4 0.0
29/05:30am 7.7 1.6 0.7 61 2.8 S 22 33 12 18 1017.5 1018.0 0.0
29/05:00am 6.9 -2.1 0.4 63 2.6 SSE 37 59 20 32 1016.9 1017.4 0.0
29/04:39am 7.1 -0.2 0.1 61 2.8 S 28 48 15 26 1016.6 1017.1 0.0
29/04:30am 6.4 0.6 -0.3 62 2.6 S 20 32 11 17 1016.8 1017.3 0.0
29/04:00am 6.9 -0.1 -0.8 58 3.0 S 26 48 14 26 1016.5 1017.0 0.0
29/03:59am 7.0 -0.4 -0.7 58 3.0 S 28 59 15 32 1016.6 1017.1 0.0
29/03:30am 6.8 -2.3 -0.9 58 3.0 SW 37 57 20 31 1016.7 1017.2 0.0
29/03:00am 6.9 -2.3 -1.3 56 3.1 SW 37 69 20 37 1016.6 1017.1 0.0
29/02:31am 6.3 -2.5 -1.1 59 2.8 SW 35 54 19 29 1017.4 1017.9 0.0
29/02:30am 6.2 -3.0 -1.2 59 2.8 SW 37 54 20 29 1017.4 1017.9 0.0
29/02:09am 6.1 -1.8 -1.3 59 2.8 SW 30 57 16 31 1018.1 1018.7 0.0
29/02:00am 4.6 -2.5 -1.2 66 2.2 WSW 26 61 14 33 1018.2 1018.8 0.0
29/01:53am 5.3 0.0 -0.5 66 2.2 WSW 17 59 9 32 1018.2 1018.8 0.0
29/01:30am 3.2 -1.5 -1.9 69 1.8 W 13 24 7 13 1019.2 1019.7 0.0
29/01:00am 3.9 -2.6 -2.3 64 2.2 WSW 22 33 12 18 1020.0 1020.5 0.0
29/12:30am 4.3 -2.6 -2.5 61 2.5 SW 24 35 13 19 1020.5 1021.0 0.0
29/12:00am 3.1 -2.2 -3.2 63 2.2 SW 15 30 8 16 1020.8 1021.4 0.0
 
Date/Time
EST
Temp
°C
App
Temp
°C
Dew
Point
Rel
Hum
%
Delta-T
°C
Wind Press
QNH
hPa
Press
MSL
hPa
Rain
since 9 am
mm
Dir
 
Spd
km/h
Gust
km/h
Spd
kts
Gust
kts
28/11:30pm 4.0 -2.6 -3.7 57 2.7 SW 22 37 12 20 1021.2 1021.8 0.0
28/11:00pm 3.9 -0.4 -4.5 54 2.8 WSW 9 20 5 11 1021.9 1022.5 0.0
28/10:30pm 4.0 -1.0 -4.2 55 2.8 SW 13 32 7 17 1022.3 1022.9 0.0
28/10:00pm 3.1 -2.0 -4.8 56 2.6 WSW 13 28 7 15 1023.0 1023.5 0.0
28/09:30pm 2.1 -1.8 -5.1 59 2.5 NNW 7 11 4 6 1023.4 1023.9 0.0
28/09:00pm 3.3 -1.8 -5.1 54 2.8 WSW 13 19 7 10 1023.8 1024.4 0.0
28/08:30pm 3.6 -2.3 -5.6 51 3.0 SW 17 32 9 17 1024.0 1024.6 0.0
28/08:00pm 3.6 -1.6 -5.8 50 3.1 SW 13 19 7 10 1023.9 1024.5 0.0
28/07:30pm 4.5 -1.9 -7.0 43 3.7 SSW 19 39 10 21 1024.0 1024.6 0.0
28/07:00pm 5.2 -2.2 -7.3 40 4.0 S 24 32 13 17 1024.1 1024.7 0.0
28/06:30pm 4.7 -0.4 -5.6 47 3.4 SSW 13 32 7 17 1023.8 1024.4 0.0
28/06:00pm 5.8 0.3 -5.2 45 3.8 SSW 15 22 8 12 1023.5 1024.1 0.0
28/05:30pm 6.4 -0.4 -5.6 42 4.1 S 22 30 12 16 1023.2 1023.7 0.0
28/05:00pm 7.1 1.5 -2.6 50 3.6 SSE 17 26 9 14 1022.9 1023.4 0.0
28/04:30pm 7.5 3.3 -0.9 55 3.3 ESE 11 17 6 9 1022.8 1023.3 0.0
28/04:00pm 8.8 4.8 -2.2 46 4.2 SE 9 13 5 7 1022.7 1023.2 0.0
28/03:30pm 8.1 2.9 -2.8 46 4.1 S 15 20 8 11 1022.7 1023.2 0.0
28/03:00pm 9.1 3.5 -2.8 43 4.5 SSE 17 28 9 15 1022.7 1023.2 0.0
28/02:30pm 8.5 2.9 -3.0 44 4.3 SSE 17 28 9 15 1022.8 1023.3 0.0
28/02:00pm 8.8 3.6 -2.5 45 4.3 SE 15 24 8 13 1023.1 1023.6 0.0
28/01:30pm 8.8 2.6 -3.4 42 4.5 SSE 20 35 11 19 1023.1 1023.6 0.0
28/01:00pm 9.1 2.7 -1.6 47 4.2 SSE 22 33 12 18 1023.4 1023.9 0.0
28/12:30pm 8.3 2.1 -3.2 44 4.3 SSE 20 30 11 16 1023.9 1024.5 0.0
28/12:00pm 8.0 1.3 -4.1 42 4.4 SE 22 37 12 20 1024.2 1024.8 0.0
28/11:30am 8.3 2.8 -1.8 49 3.9 SSE 17 33 9 18 1024.6 1025.2 0.0
28/11:00am 7.5 0.9 -3.1 47 3.9 SSE 22 32 12 17 1024.9 1025.5 0.0

Other Formats:

Comma delimited format used in spreadsheet applications
http://www.bom.gov.au/fwo/IDT60801/IDT60801.94955.axf

JavaScript Object Notation format (JSON) in row-major order
http://www.bom.gov.au/fwo/IDT60801/IDT60801.94955.json